This is the latest recevied weather packets stored in our database for station/object KF0EZB. If no packets are shown the sender has not sent any weather packets the latest 10 day(s).
| Time | Temp. | Humidity | Pressure | Rain* | Wind** | Luminosity | Snow |
|---|---|---|---|---|---|---|---|
| 1777651519 | 16.67° C | 51% | 1019.6 hPa | 0 mm | - | 702 W/m² | - |
| 1777650912 | 16.67° C | 53% | 1019.7 hPa | 0 mm | - | 688 W/m² | - |
| 1777650307 | 16.11° C | 53% | 1019.7 hPa | 0 mm | - | 636 W/m² | - |
| 1777650003 | 15.56° C | 54% | 1019.7 hPa | 0 mm | - | 613 W/m² | - |
| 1777649701 | 15.56° C | 53% | 1019.8 hPa | 0 mm | - | 619 W/m² | - |
| 1777649396 | 15.56° C | 55% | 1019.5 hPa | 0 mm | - | 631 W/m² | - |
| 1777649094 | 15.56° C | 55% | 1019.5 hPa | 0 mm | - | 591 W/m² | - |
| 1777648791 | 15° C | 56% | 1019.8 hPa | 0 mm | - | 572 W/m² | - |
| 1777648488 | 15° C | 56% | 1019.8 hPa | 0 mm | - | 580 W/m² | - |
| 1777648184 | 14.44° C | 58% | 1019.9 hPa | 0 mm | - | 524 W/m² | - |
| 1777647880 | 15° C | 55% | 1019.8 hPa | 0 mm | - | 573 W/m² | - |
| 1777647577 | 15° C | 57% | 1019.9 hPa | 0 mm | - | 530 W/m² | - |
| 1777647273 | 15° C | 57% | 1020.1 hPa | 0 mm | - | 517 W/m² | - |
| 1777646362 | 13.33° C | 62% | 1019.9 hPa | 0 mm | - | 462 W/m² | - |
| 1777646059 | 13.33° C | 60% | 1020.1 hPa | 0 mm | - | 451 W/m² | - |
| 1777645755 | 12.78° C | 61% | 1019.8 hPa | 0 mm | - | 436 W/m² | - |
| 1777645453 | 12.78° C | 63% | 1020 hPa | 0 mm | - | 399 W/m² | - |
| 1777645148 | 12.22° C | 63% | 1020 hPa | 0 mm | - | 361 W/m² | - |
| 1777644845 | 12.22° C | 63% | 1019.9 hPa | 0 mm | - | 343 W/m² | - |
| 1777644543 | 11.67° C | 63% | 1020.1 hPa | 0 mm | - | 348 W/m² | - |
| 1777644239 | 11.67° C | 65% | 1019.8 hPa | 0 mm | - | 83 W/m² | - |
| 1777643935 | 11.67° C | 67% | 1019.9 hPa | 0 mm | - | 280 W/m² | - |
| 1777643633 | 11.11° C | 66% | 1019.8 hPa | 0 mm | - | 262 W/m² | - |
| 1777643026 | 10.56° C | 69% | 1019.7 hPa | 0 mm | - | 235 W/m² | - |
| 1777642723 | 10.56° C | 70% | 1019.9 hPa | 0 mm | - | 239 W/m² | - |
* Rain latest hour (hover to see other rain measurements)
** Current wind speed in m/s (hover to see current wind gust speed)